»·PEaware :: N1453S KLAX-KSNA

N1453S :: KLAX-KSNA

FLIGHT INFORMATION

Flight Status: Arrived
Operator: Privately registered:
United States
More flights under this callsign
Pilot: Langdon M. (23058)
Aircraft: BEECH AIRCRAFT BARON
(BE58)
More flights by this aircraft type
Origin: KLAX Los Angeles Intl
United States
Destination: KSNA John Wayne-Orange Co
United States
More flights between these airports :: More routes between these airports
Route: +SLI8 SLI
File this flight plan on PilotEdge
Remarks: I-6
Altitude:
(Current/Filed)
400ft
Speed:
(Current/Filed)
160kts
Departed: 29-Jan-19 05:25 PM
Arrived: 29-Jan-19 06:04 PM
Distance/Time
Traveled:
31nm/0:39
Distance/Time
To Go:
Arrived

Flight Plot

Page will automatically refresh every two minutes.

Flight plan parsing failed; only flown route is shown


Map Options




Map Legend


Flown Route
Filed Route
Departure Airport
Arrival Airport
Navaid (VOR, NDB)
Fix

Horizontal Profiles

Position Reports

Time Latitude Longitude Heading Altitude Ground
Speed
29-Jan-19 17:03 33.946031 -118.419814 263 129ft 0kts
29-Jan-19 17:04 33.946031 -118.419814 263 129ft 0kts
29-Jan-19 17:05 33.946031 -118.419814 263 129ft 0kts
29-Jan-19 17:06 33.946031 -118.419814 263 129ft 0kts
29-Jan-19 17:07 33.946031 -118.419814 263 129ft 0kts
29-Jan-19 17:08 33.946031 -118.419814 263 129ft 0kts
29-Jan-19 17:09 33.946031 -118.419814 263 129ft 0kts
29-Jan-19 17:10 33.946031 -118.419814 263 129ft 0kts
29-Jan-19 17:11 33.946031 -118.419814 263 129ft 0kts
29-Jan-19 17:12 33.946031 -118.419814 263 129ft 0kts
29-Jan-19 17:14 33.946031 -118.419814 263 129ft 0kts
29-Jan-19 17:15 33.946031 -118.419814 263 129ft 0kts
29-Jan-19 17:16 33.946031 -118.419814 263 129ft 0kts
29-Jan-19 17:17 33.946031 -118.419814 263 129ft 0kts
29-Jan-19 17:18 33.947223 -118.418555 83 129ft 19kts
29-Jan-19 17:19 33.948380 -118.408561 83 129ft 30kts
29-Jan-19 17:20 33.949454 -118.400714 350 129ft 0kts
29-Jan-19 17:21 33.949454 -118.400714 350 129ft 0kts
29-Jan-19 17:22 33.949454 -118.400714 350 129ft 0kts
29-Jan-19 17:23 33.949454 -118.400714 350 129ft 0kts
29-Jan-19 17:24 33.949770 -118.400754 355 129ft 11kts
29-Jan-19 17:25 33.950036 -118.403143 262 129ft 45kts
29-Jan-19 17:26 33.946307 -118.439552 262 1121ft 131kts
29-Jan-19 17:27 33.941624 -118.485618 262 2328ft 142kts
29-Jan-19 17:28 33.932450 -118.531509 222 3327ft 145kts
29-Jan-19 17:29 33.890854 -118.525322 171 3855ft 158kts
29-Jan-19 17:30 33.849367 -118.531054 169 4016ft 181kts
29-Jan-19 17:31 33.801563 -118.519728 170 3859ft 183kts
29-Jan-19 17:32 33.753993 -118.509067 170 4121ft 155kts
29-Jan-19 17:32 33.715775 -118.498979 170 3713ft 180kts
29-Jan-19 17:33 33.672460 -118.483035 133 4018ft 163kts
29-Jan-19 17:35 33.668526 -118.421017 73 3754ft 182kts
29-Jan-19 17:36 33.681589 -118.367691 72 3911ft 170kts
29-Jan-19 17:36 33.692685 -118.323425 70 3957ft 165kts
29-Jan-19 17:37 33.706920 -118.270939 71 3941ft 166kts
29-Jan-19 17:38 33.726559 -118.220391 59 3900ft 167kts
29-Jan-19 17:39 33.745938 -118.169613 62 4019ft 165kts
29-Jan-19 17:40 33.764437 -118.117645 71 4076ft 168kts
29-Jan-19 17:41 33.781115 -118.063769 73 4125ft 170kts
29-Jan-19 17:42 33.801337 -118.010772 66 4057ft 174kts
29-Jan-19 17:43 33.821962 -117.958124 62 4106ft 172kts
29-Jan-19 17:44 33.843500 -117.905517 65 3996ft 177kts
29-Jan-19 17:45 33.863301 -117.852075 66 4012ft 174kts
29-Jan-19 17:46 33.885659 -117.800899 58 4030ft 172kts
29-Jan-19 17:47 33.906631 -117.749225 61 4064ft 171kts
29-Jan-19 17:48 33.929369 -117.698782 43 4042ft 172kts
29-Jan-19 17:49 33.969595 -117.667972 26 3608ft 167kts
29-Jan-19 17:50 33.999174 -117.685047 247 3492ft 156kts
29-Jan-19 17:51 33.963522 -117.688563 172 3662ft 115kts
29-Jan-19 17:52 33.933673 -117.701432 206 3427ft 108kts
29-Jan-19 17:53 33.908337 -117.717432 209 3439ft 101kts
29-Jan-19 17:54 33.884395 -117.735384 219 3354ft 101kts
29-Jan-19 17:55 33.860796 -117.752390 200 3328ft 98kts
29-Jan-19 17:56 33.836358 -117.766994 211 3407ft 98kts
29-Jan-19 17:57 33.811992 -117.782664 208 2888ft 100kts
29-Jan-19 17:58 33.787705 -117.798557 207 2312ft 98kts
29-Jan-19 17:59 33.763530 -117.813443 209 1862ft 97kts
29-Jan-19 18:00 33.739545 -117.828057 211 1422ft 96kts
29-Jan-19 18:01 33.716063 -117.843126 207 887ft 95kts
29-Jan-19 18:02 33.692872 -117.858147 205 329ft 91kts
29-Jan-19 18:03 33.674183 -117.869861 209 60ft 24kts
29-Jan-19 18:04 33.674268 -117.870850 300 60ft 0kts
29-Jan-19 18:05 33.672851 -117.873092 203 60ft 0kts
29-Jan-19 18:06 33.672850 -117.873092 203 60ft 0kts
29-Jan-19 18:07 33.672850 -117.873092 203 60ft 0kts
29-Jan-19 18:08 33.672850 -117.873092 203 60ft 0kts
29-Jan-19 18:09 33.672850 -117.873092 203 60ft 0kts
29-Jan-19 18:10 33.672850 -117.873092 203 60ft 0kts
29-Jan-19 18:11 33.672850 -117.873092 203 60ft 0kts
29-Jan-19 18:12 33.672850 -117.873092 203 60ft 0kts
29-Jan-19 18:13 33.672850 -117.873092 203 60ft 0kts
29-Jan-19 18:14 33.672850 -117.873092 203 60ft 0kts
29-Jan-19 18:15 33.672850 -117.873092 203 60ft 0kts
29-Jan-19 18:16 33.672850 -117.873092 203 60ft 0kts
29-Jan-19 18:17 33.672850 -117.873092 203 60ft 0kts

Navigation Log

Ident Type
Flight plan parsing failed, navigation log unavailable